sensor_id;sensor_type;location;lat;lon;timestamp;P1;durP1;ratioP1;P2;durP2;ratioP2
65759;SDS011;52496;51.082;5.066;2024-01-15T00:02:21;20.58;;;9.07;;
65759;SDS011;52496;51.082;5.066;2024-01-15T00:04:52;17.85;;;7.97;;
65759;SDS011;52496;51.082;5.066;2024-01-15T00:07:22;25.02;;;9.98;;
65759;SDS011;52496;51.082;5.066;2024-01-15T00:09:53;22.38;;;9.93;;
65759;SDS011;52496;51.082;5.066;2024-01-15T00:12:23;20.65;;;9.93;;
65759;SDS011;52496;51.082;5.066;2024-01-15T00:14:54;18.40;;;8.70;;
65759;SDS011;52496;51.082;5.066;2024-01-15T00:17:24;16.23;;;8.30;;
65759;SDS011;52496;51.082;5.066;2024-01-15T00:19:55;20.02;;;9.07;;
65759;SDS011;52496;51.082;5.066;2024-01-15T00:22:25;21.92;;;9.48;;
65759;SDS011;52496;51.082;5.066;2024-01-15T00:24:57;28.70;;;10.60;;
65759;SDS011;52496;51.082;5.066;2024-01-15T00:27:27;23.20;;;9.25;;
65759;SDS011;52496;51.082;5.066;2024-01-15T00:29:58;18.20;;;9.48;;
65759;SDS011;52496;51.082;5.066;2024-01-15T00:32:28;22.73;;;8.85;;
65759;SDS011;52496;51.082;5.066;2024-01-15T00:34:59;21.75;;;9.50;;
65759;SDS011;52496;51.082;5.066;2024-01-15T00:37:29;23.88;;;10.00;;
65759;SDS011;52496;51.082;5.066;2024-01-15T00:40:00;22.60;;;10.60;;
65759;SDS011;52496;51.082;5.066;2024-01-15T00:42:30;20.85;;;9.18;;
65759;SDS011;52496;51.082;5.066;2024-01-15T00:45:00;28.63;;;11.45;;
65759;SDS011;52496;51.082;5.066;2024-01-15T00:47:31;20.42;;;9.00;;
65759;SDS011;52496;51.082;5.066;2024-01-15T00:50:01;27.35;;;11.55;;
65759;SDS011;52496;51.082;5.066;2024-01-15T00:52:32;24.38;;;11.48;;
65759;SDS011;52496;51.082;5.066;2024-01-15T00:55:02;21.77;;;10.07;;
65759;SDS011;52496;51.082;5.066;2024-01-15T00:57:33;24.58;;;9.50;;
65759;SDS011;52496;51.082;5.066;2024-01-15T01:00:03;29.70;;;9.90;;
65759;SDS011;52496;51.082;5.066;2024-01-15T01:02:34;25.00;;;10.98;;
65759;SDS011;52496;51.082;5.066;2024-01-15T01:05:05;25.52;;;10.40;;
65759;SDS011;52496;51.082;5.066;2024-01-15T01:07:35;35.22;;;13.38;;
65759;SDS011;52496;51.082;5.066;2024-01-15T01:10:06;26.38;;;13.18;;
65759;SDS011;52496;51.082;5.066;2024-01-15T01:12:37;24.85;;;11.25;;
65759;SDS011;52496;51.082;5.066;2024-01-15T01:15:07;23.38;;;9.95;;
65759;SDS011;52496;51.082;5.066;2024-01-15T01:17:38;23.38;;;9.20;;
65759;SDS011;52496;51.082;5.066;2024-01-15T01:20:08;24.48;;;9.95;;
65759;SDS011;52496;51.082;5.066;2024-01-15T01:22:40;24.65;;;10.73;;
65759;SDS011;52496;51.082;5.066;2024-01-15T01:25:11;26.52;;;10.95;;
65759;SDS011;52496;51.082;5.066;2024-01-15T01:27:41;26.25;;;10.00;;
65759;SDS011;52496;51.082;5.066;2024-01-15T01:30:12;22.10;;;10.10;;
65759;SDS011;52496;51.082;5.066;2024-01-15T01:32:42;23.10;;;10.60;;
65759;SDS011;52496;51.082;5.066;2024-01-15T01:35:13;22.90;;;10.45;;
65759;SDS011;52496;51.082;5.066;2024-01-15T01:37:43;24.13;;;11.20;;
65759;SDS011;52496;51.082;5.066;2024-01-15T01:40:13;27.60;;;11.25;;
65759;SDS011;52496;51.082;5.066;2024-01-15T01:42:44;23.30;;;11.00;;
65759;SDS011;52496;51.082;5.066;2024-01-15T01:45:15;23.08;;;9.45;;
65759;SDS011;52496;51.082;5.066;2024-01-15T01:47:45;21.58;;;9.52;;
65759;SDS011;52496;51.082;5.066;2024-01-15T01:50:16;19.83;;;8.35;;
65759;SDS011;52496;51.082;5.066;2024-01-15T01:52:47;20.42;;;8.73;;
65759;SDS011;52496;51.082;5.066;2024-01-15T01:55:19;16.70;;;8.00;;
65759;SDS011;52496;51.082;5.066;2024-01-15T01:57:51;24.65;;;8.65;;
65759;SDS011;52496;51.082;5.066;2024-01-15T02:00:22;16.10;;;7.93;;
65759;SDS011;52496;51.082;5.066;2024-01-15T02:02:53;17.25;;;8.85;;
65759;SDS011;52496;51.082;5.066;2024-01-15T02:05:23;14.15;;;7.28;;
65759;SDS011;52496;51.082;5.066;2024-01-15T02:07:54;20.90;;;9.45;;
65759;SDS011;52496;51.082;5.066;2024-01-15T02:10:24;16.20;;;8.20;;
65759;SDS011;52496;51.082;5.066;2024-01-15T02:12:55;24.80;;;8.98;;
65759;SDS011;52496;51.082;5.066;2024-01-15T02:15:25;16.33;;;7.85;;
65759;SDS011;52496;51.082;5.066;2024-01-15T02:17:59;20.25;;;8.30;;
65759;SDS011;52496;51.082;5.066;2024-01-15T02:20:31;15.32;;;7.95;;
65759;SDS011;52496;51.082;5.066;2024-01-15T02:23:08;12.60;;;6.75;;
65759;SDS011;52496;51.082;5.066;2024-01-15T02:25:40;18.50;;;8.68;;
65759;SDS011;52496;51.082;5.066;2024-01-15T02:28:16;18.00;;;8.93;;
65759;SDS011;52496;51.082;5.066;2024-01-15T02:30:47;18.02;;;8.52;;
65759;SDS011;52496;51.082;5.066;2024-01-15T02:33:18;19.80;;;8.70;;
65759;SDS011;52496;51.082;5.066;2024-01-15T02:35:48;18.08;;;8.07;;
65759;SDS011;52496;51.082;5.066;2024-01-15T02:38:20;17.25;;;7.63;;
65759;SDS011;52496;51.082;5.066;2024-01-15T02:40:51;16.98;;;8.55;;
65759;SDS011;52496;51.082;5.066;2024-01-15T02:43:21;18.23;;;8.32;;
65759;SDS011;52496;51.082;5.066;2024-01-15T02:45:52;22.80;;;8.57;;
65759;SDS011;52496;51.082;5.066;2024-01-15T02:48:22;17.63;;;8.48;;
65759;SDS011;52496;51.082;5.066;2024-01-15T02:50:52;19.40;;;8.15;;
65759;SDS011;52496;51.082;5.066;2024-01-15T02:53:23;13.48;;;7.80;;
65759;SDS011;52496;51.082;5.066;2024-01-15T02:55:53;14.98;;;7.32;;
65759;SDS011;52496;51.082;5.066;2024-01-15T02:58:24;14.13;;;7.53;;
65759;SDS011;52496;51.082;5.066;2024-01-15T03:00:55;15.57;;;7.18;;
65759;SDS011;52496;51.082;5.066;2024-01-15T03:03:25;16.90;;;7.32;;
65759;SDS011;52496;51.082;5.066;2024-01-15T03:05:55;22.90;;;8.95;;
65759;SDS011;52496;51.082;5.066;2024-01-15T03:08:26;17.10;;;8.48;;
65759;SDS011;52496;51.082;5.066;2024-01-15T03:10:56;19.10;;;7.32;;
65759;SDS011;52496;51.082;5.066;2024-01-15T03:13:27;16.10;;;7.30;;
65759;SDS011;52496;51.082;5.066;2024-01-15T03:15:57;12.90;;;6.72;;
65759;SDS011;52496;51.082;5.066;2024-01-15T03:18:28;22.30;;;8.38;;
65759;SDS011;52496;51.082;5.066;2024-01-15T03:20:58;18.83;;;7.85;;
65759;SDS011;52496;51.082;5.066;2024-01-15T03:23:31;14.57;;;7.22;;
65759;SDS011;52496;51.082;5.066;2024-01-15T03:26:01;13.38;;;7.22;;
65759;SDS011;52496;51.082;5.066;2024-01-15T03:28:32;13.85;;;6.90;;
65759;SDS011;52496;51.082;5.066;2024-01-15T03:31:02;16.58;;;8.52;;
65759;SDS011;52496;51.082;5.066;2024-01-15T03:33:33;12.15;;;6.47;;
65759;SDS011;52496;51.082;5.066;2024-01-15T03:36:03;11.05;;;5.07;;
65759;SDS011;52496;51.082;5.066;2024-01-15T03:38:34;16.48;;;6.05;;
65759;SDS011;52496;51.082;5.066;2024-01-15T03:41:04;14.20;;;5.68;;
65759;SDS011;52496;51.082;5.066;2024-01-15T03:43:34;18.73;;;7.22;;
65759;SDS011;52496;51.082;5.066;2024-01-15T03:46:05;12.48;;;6.85;;
65759;SDS011;52496;51.082;5.066;2024-01-15T03:48:36;9.18;;;4.88;;
65759;SDS011;52496;51.082;5.066;2024-01-15T03:51:07;9.82;;;5.57;;
65759;SDS011;52496;51.082;5.066;2024-01-15T03:53:38;9.40;;;4.88;;
65759;SDS011;52496;51.082;5.066;2024-01-15T03:56:08;10.10;;;4.40;;
65759;SDS011;52496;51.082;5.066;2024-01-15T03:58:39;8.30;;;4.47;;
65759;SDS011;52496;51.082;5.066;2024-01-15T04:01:09;8.57;;;4.78;;
65759;SDS011;52496;51.082;5.066;2024-01-15T04:03:40;9.88;;;4.47;;
65759;SDS011;52496;51.082;5.066;2024-01-15T04:06:11;10.43;;;4.70;;
65759;SDS011;52496;51.082;5.066;2024-01-15T04:08:41;10.77;;;4.28;;
65759;SDS011;52496;51.082;5.066;2024-01-15T04:11:12;8.30;;;4.25;;
65759;SDS011;52496;51.082;5.066;2024-01-15T04:13:42;11.43;;;4.13;;
65759;SDS011;52496;51.082;5.066;2024-01-15T04:16:13;10.02;;;3.95;;
65759;SDS011;52496;51.082;5.066;2024-01-15T04:18:43;8.93;;;3.95;;
65759;SDS011;52496;51.082;5.066;2024-01-15T04:21:14;9.60;;;4.10;;
65759;SDS011;52496;51.082;5.066;2024-01-15T04:23:47;12.02;;;5.22;;
65759;SDS011;52496;51.082;5.066;2024-01-15T04:26:17;7.72;;;4.28;;
65759;SDS011;52496;51.082;5.066;2024-01-15T04:28:48;11.20;;;3.67;;
65759;SDS011;52496;51.082;5.066;2024-01-15T04:31:25;10.23;;;4.43;;
65759;SDS011;52496;51.082;5.066;2024-01-15T04:33:56;8.38;;;4.10;;
65759;SDS011;52496;51.082;5.066;2024-01-15T04:36:27;9.07;;;3.67;;
65759;SDS011;52496;51.082;5.066;2024-01-15T04:38:57;8.30;;;3.72;;
65759;SDS011;52496;51.082;5.066;2024-01-15T04:41:28;14.00;;;3.78;;
65759;SDS011;52496;51.082;5.066;2024-01-15T04:43:58;7.63;;;3.75;;
65759;SDS011;52496;51.082;5.066;2024-01-15T04:46:30;9.73;;;4.70;;
65759;SDS011;52496;51.082;5.066;2024-01-15T04:49:01;7.75;;;4.22;;
65759;SDS011;52496;51.082;5.066;2024-01-15T04:51:31;9.32;;;4.50;;
65759;SDS011;52496;51.082;5.066;2024-01-15T04:54:01;8.02;;;3.05;;
65759;SDS011;52496;51.082;5.066;2024-01-15T04:56:32;7.00;;;3.45;;
65759;SDS011;52496;51.082;5.066;2024-01-15T04:59:02;14.70;;;5.35;;
65759;SDS011;52496;51.082;5.066;2024-01-15T05:01:33;8.02;;;3.85;;
65759;SDS011;52496;51.082;5.066;2024-01-15T05:04:03;11.35;;;4.18;;
65759;SDS011;52496;51.082;5.066;2024-01-15T05:06:34;14.93;;;4.97;;
65759;SDS011;52496;51.082;5.066;2024-01-15T05:09:04;6.55;;;3.60;;
65759;SDS011;52496;51.082;5.066;2024-01-15T05:11:35;11.48;;;4.28;;
65759;SDS011;52496;51.082;5.066;2024-01-15T05:14:05;8.68;;;4.95;;
65759;SDS011;52496;51.082;5.066;2024-01-15T05:16:39;14.15;;;4.70;;
65759;SDS011;52496;51.082;5.066;2024-01-15T05:19:10;8.07;;;4.18;;
65759;SDS011;52496;51.082;5.066;2024-01-15T05:21:40;12.95;;;5.18;;
65759;SDS011;52496;51.082;5.066;2024-01-15T05:24:11;7.88;;;4.70;;
65759;SDS011;52496;51.082;5.066;2024-01-15T05:26:41;12.93;;;6.18;;
65759;SDS011;52496;51.082;5.066;2024-01-15T05:29:11;10.35;;;5.45;;
65759;SDS011;52496;51.082;5.066;2024-01-15T05:31:42;10.43;;;5.25;;
65759;SDS011;52496;51.082;5.066;2024-01-15T05:34:12;9.02;;;5.13;;
65759;SDS011;52496;51.082;5.066;2024-01-15T05:36:43;12.10;;;5.97;;
65759;SDS011;52496;51.082;5.066;2024-01-15T05:39:13;10.80;;;5.97;;
65759;SDS011;52496;51.082;5.066;2024-01-15T05:41:44;18.25;;;5.95;;
65759;SDS011;52496;51.082;5.066;2024-01-15T05:44:14;12.65;;;6.15;;
65759;SDS011;52496;51.082;5.066;2024-01-15T05:46:45;15.73;;;6.30;;
65759;SDS011;52496;51.082;5.066;2024-01-15T05:49:15;13.85;;;7.40;;
65759;SDS011;52496;51.082;5.066;2024-01-15T05:51:45;15.50;;;7.07;;
65759;SDS011;52496;51.082;5.066;2024-01-15T05:54:17;17.55;;;6.90;;
65759;SDS011;52496;51.082;5.066;2024-01-15T05:56:50;21.35;;;6.85;;
65759;SDS011;52496;51.082;5.066;2024-01-15T05:59:20;12.07;;;6.03;;
65759;SDS011;52496;51.082;5.066;2024-01-15T06:01:51;16.50;;;6.70;;
65759;SDS011;52496;51.082;5.066;2024-01-15T06:04:21;15.73;;;6.70;;
65759;SDS011;52496;51.082;5.066;2024-01-15T06:06:52;18.05;;;6.88;;
65759;SDS011;52496;51.082;5.066;2024-01-15T06:09:22;13.35;;;6.53;;
65759;SDS011;52496;51.082;5.066;2024-01-15T06:11:53;17.45;;;7.47;;
65759;SDS011;52496;51.082;5.066;2024-01-15T06:14:23;12.52;;;6.45;;
65759;SDS011;52496;51.082;5.066;2024-01-15T06:16:54;13.52;;;6.22;;
65759;SDS011;52496;51.082;5.066;2024-01-15T06:19:24;16.65;;;7.13;;
65759;SDS011;52496;51.082;5.066;2024-01-15T06:21:54;14.68;;;6.03;;
65759;SDS011;52496;51.082;5.066;2024-01-15T06:24:25;12.73;;;5.55;;
65759;SDS011;52496;51.082;5.066;2024-01-15T06:26:55;13.13;;;7.10;;
65759;SDS011;52496;51.082;5.066;2024-01-15T06:29:26;10.32;;;5.93;;
65759;SDS011;52496;51.082;5.066;2024-01-15T06:31:59;14.25;;;6.57;;
65759;SDS011;52496;51.082;5.066;2024-01-15T06:34:29;10.23;;;5.13;;
65759;SDS011;52496;51.082;5.066;2024-01-15T06:37:00;13.20;;;6.32;;
65759;SDS011;52496;51.082;5.066;2024-01-15T06:39:30;11.85;;;5.70;;
65759;SDS011;52496;51.082;5.066;2024-01-15T06:42:01;12.75;;;6.72;;
65759;SDS011;52496;51.082;5.066;2024-01-15T06:44:31;13.27;;;6.53;;
65759;SDS011;52496;51.082;5.066;2024-01-15T06:47:01;14.48;;;6.28;;
65759;SDS011;52496;51.082;5.066;2024-01-15T06:49:32;15.13;;;5.57;;
65759;SDS011;52496;51.082;5.066;2024-01-15T06:52:03;12.23;;;5.85;;
65759;SDS011;52496;51.082;5.066;2024-01-15T06:54:33;10.10;;;5.70;;
65759;SDS011;52496;51.082;5.066;2024-01-15T06:57:04;15.40;;;5.72;;
65759;SDS011;52496;51.082;5.066;2024-01-15T06:59:36;11.55;;;5.88;;
65759;SDS011;52496;51.082;5.066;2024-01-15T07:02:07;9.70;;;4.95;;
65759;SDS011;52496;51.082;5.066;2024-01-15T07:04:37;16.90;;;6.47;;
65759;SDS011;52496;51.082;5.066;2024-01-15T07:07:08;26.13;;;5.57;;
65759;SDS011;52496;51.082;5.066;2024-01-15T07:09:39;11.00;;;5.00;;
65759;SDS011;52496;51.082;5.066;2024-01-15T07:12:09;12.10;;;4.63;;
65759;SDS011;52496;51.082;5.066;2024-01-15T07:14:39;13.05;;;4.88;;
65759;SDS011;52496;51.082;5.066;2024-01-15T07:17:10;14.98;;;4.18;;
65759;SDS011;52496;51.082;5.066;2024-01-15T07:19:40;10.63;;;3.95;;
65759;SDS011;52496;51.082;5.066;2024-01-15T07:22:11;10.77;;;4.60;;
65759;SDS011;52496;51.082;5.066;2024-01-15T07:24:41;16.63;;;4.80;;
65759;SDS011;52496;51.082;5.066;2024-01-15T07:27:12;9.57;;;3.83;;
65759;SDS011;52496;51.082;5.066;2024-01-15T07:29:42;10.20;;;4.90;;
65759;SDS011;52496;51.082;5.066;2024-01-15T07:32:13;7.85;;;4.32;;
65759;SDS011;52496;51.082;5.066;2024-01-15T07:34:44;7.45;;;3.90;;
65759;SDS011;52496;51.082;5.066;2024-01-15T07:37:14;7.50;;;4.25;;
65759;SDS011;52496;51.082;5.066;2024-01-15T07:39:45;8.52;;;4.20;;
65759;SDS011;52496;51.082;5.066;2024-01-15T07:42:15;6.53;;;3.80;;
65759;SDS011;52496;51.082;5.066;2024-01-15T07:44:46;7.50;;;3.65;;
65759;SDS011;52496;51.082;5.066;2024-01-15T07:47:17;10.02;;;4.53;;
65759;SDS011;52496;51.082;5.066;2024-01-15T07:49:47;5.93;;;3.65;;
65759;SDS011;52496;51.082;5.066;2024-01-15T07:52:18;8.05;;;2.85;;
65759;SDS011;52496;51.082;5.066;2024-01-15T07:54:48;10.07;;;3.03;;
65759;SDS011;52496;51.082;5.066;2024-01-15T07:57:19;5.10;;;2.40;;
65759;SDS011;52496;51.082;5.066;2024-01-15T07:59:49;7.40;;;2.90;;
65759;SDS011;52496;51.082;5.066;2024-01-15T08:02:19;5.03;;;2.50;;
65759;SDS011;52496;51.082;5.066;2024-01-15T08:04:50;5.95;;;3.17;;
65759;SDS011;52496;51.082;5.066;2024-01-15T08:07:20;7.38;;;3.00;;
65759;SDS011;52496;51.082;5.066;2024-01-15T08:09:51;8.25;;;3.08;;
65759;SDS011;52496;51.082;5.066;2024-01-15T08:12:22;6.72;;;4.88;;
65759;SDS011;52496;51.082;5.066;2024-01-15T08:14:53;6.57;;;3.88;;
65759;SDS011;52496;51.082;5.066;2024-01-15T08:17:24;7.45;;;4.15;;
65759;SDS011;52496;51.082;5.066;2024-01-15T08:19:58;13.48;;;5.05;;
65759;SDS011;52496;51.082;5.066;2024-01-15T08:22:30;10.73;;;4.50;;
65759;SDS011;52496;51.082;5.066;2024-01-15T08:25:00;15.05;;;4.78;;
65759;SDS011;52496;51.082;5.066;2024-01-15T08:27:31;17.40;;;5.57;;
65759;SDS011;52496;51.082;5.066;2024-01-15T08:30:02;10.18;;;5.22;;
65759;SDS011;52496;51.082;5.066;2024-01-15T08:32:34;13.77;;;5.70;;
65759;SDS011;52496;51.082;5.066;2024-01-15T08:35:07;14.52;;;5.90;;
65759;SDS011;52496;51.082;5.066;2024-01-15T08:37:38;8.02;;;4.95;;
65759;SDS011;52496;51.082;5.066;2024-01-15T08:40:09;11.10;;;5.03;;
65759;SDS011;52496;51.082;5.066;2024-01-15T08:42:40;9.70;;;5.88;;
65759;SDS011;52496;51.082;5.066;2024-01-15T08:45:10;9.32;;;5.07;;
65759;SDS011;52496;51.082;5.066;2024-01-15T08:47:41;9.85;;;5.00;;
65759;SDS011;52496;51.082;5.066;2024-01-15T08:50:11;6.93;;;3.70;;
65759;SDS011;52496;51.082;5.066;2024-01-15T08:52:42;17.63;;;4.38;;
65759;SDS011;52496;51.082;5.066;2024-01-15T08:55:12;7.38;;;3.90;;
65759;SDS011;52496;51.082;5.066;2024-01-15T08:57:43;16.77;;;5.22;;
65759;SDS011;52496;51.082;5.066;2024-01-15T09:00:13;6.30;;;3.75;;
65759;SDS011;52496;51.082;5.066;2024-01-15T09:02:44;7.10;;;3.55;;
65759;SDS011;52496;51.082;5.066;2024-01-15T09:05:15;6.05;;;3.15;;
65759;SDS011;52496;51.082;5.066;2024-01-15T09:07:45;8.57;;;4.70;;
65759;SDS011;52496;51.082;5.066;2024-01-15T09:10:16;9.38;;;3.35;;
65759;SDS011;52496;51.082;5.066;2024-01-15T09:12:46;8.48;;;3.28;;
65759;SDS011;52496;51.082;5.066;2024-01-15T09:15:19;11.18;;;3.40;;
65759;SDS011;52496;51.082;5.066;2024-01-15T09:17:50;7.63;;;2.83;;
65759;SDS011;52496;51.082;5.066;2024-01-15T09:20:20;8.52;;;3.25;;
65759;SDS011;52496;51.082;5.066;2024-01-15T09:22:50;6.15;;;2.83;;
65759;SDS011;52496;51.082;5.066;2024-01-15T09:25:21;7.97;;;3.33;;
65759;SDS011;52496;51.082;5.066;2024-01-15T09:27:52;15.57;;;4.03;;
65759;SDS011;52496;51.082;5.066;2024-01-15T09:30:22;10.40;;;3.55;;
65759;SDS011;52496;51.082;5.066;2024-01-15T09:32:53;4.78;;;2.75;;
65759;SDS011;52496;51.082;5.066;2024-01-15T09:35:23;9.25;;;3.33;;
65759;SDS011;52496;51.082;5.066;2024-01-15T09:37:54;11.13;;;3.95;;
65759;SDS011;52496;51.082;5.066;2024-01-15T09:40:24;9.35;;;3.22;;
65759;SDS011;52496;51.082;5.066;2024-01-15T09:42:58;7.65;;;3.00;;
65759;SDS011;52496;51.082;5.066;2024-01-15T09:45:28;4.50;;;2.70;;
65759;SDS011;52496;51.082;5.066;2024-01-15T09:47:59;8.98;;;3.22;;
65759;SDS011;52496;51.082;5.066;2024-01-15T09:50:30;8.07;;;2.80;;
65759;SDS011;52496;51.082;5.066;2024-01-15T09:53:01;9.85;;;2.92;;
65759;SDS011;52496;51.082;5.066;2024-01-15T09:55:32;9.27;;;3.05;;
65759;SDS011;52496;51.082;5.066;2024-01-15T09:58:05;12.98;;;3.30;;
65759;SDS011;52496;51.082;5.066;2024-01-15T10:00:35;6.00;;;2.88;;
65759;SDS011;52496;51.082;5.066;2024-01-15T10:03:09;8.07;;;3.42;;
65759;SDS011;52496;51.082;5.066;2024-01-15T10:05:41;8.40;;;3.17;;
65759;SDS011;52496;51.082;5.066;2024-01-15T10:08:13;7.38;;;2.90;;
65759;SDS011;52496;51.082;5.066;2024-01-15T10:10:44;5.63;;;2.72;;
65759;SDS011;52496;51.082;5.066;2024-01-15T10:13:15;15.02;;;3.88;;
65759;SDS011;52496;51.082;5.066;2024-01-15T10:15:45;15.05;;;3.50;;
65759;SDS011;52496;51.082;5.066;2024-01-15T10:18:19;7.05;;;2.97;;
65759;SDS011;52496;51.082;5.066;2024-01-15T10:20:50;8.57;;;2.90;;
65759;SDS011;52496;51.082;5.066;2024-01-15T10:23:20;8.13;;;3.20;;
65759;SDS011;52496;51.082;5.066;2024-01-15T10:25:51;8.93;;;3.08;;
65759;SDS011;52496;51.082;5.066;2024-01-15T10:28:21;5.85;;;2.72;;
65759;SDS011;52496;51.082;5.066;2024-01-15T10:30:52;7.70;;;3.33;;
65759;SDS011;52496;51.082;5.066;2024-01-15T10:33:24;8.27;;;3.35;;
65759;SDS011;52496;51.082;5.066;2024-01-15T10:35:59;7.15;;;2.78;;
65759;SDS011;52496;51.082;5.066;2024-01-15T10:38:30;6.97;;;2.47;;
65759;SDS011;52496;51.082;5.066;2024-01-15T10:41:01;6.00;;;2.67;;
65759;SDS011;52496;51.082;5.066;2024-01-15T10:43:31;7.68;;;3.13;;
65759;SDS011;52496;51.082;5.066;2024-01-15T10:46:02;5.30;;;2.28;;
65759;SDS011;52496;51.082;5.066;2024-01-15T10:48:33;8.15;;;2.55;;
65759;SDS011;52496;51.082;5.066;2024-01-15T10:51:05;6.63;;;2.72;;
65759;SDS011;52496;51.082;5.066;2024-01-15T10:53:40;8.25;;;2.78;;
65759;SDS011;52496;51.082;5.066;2024-01-15T10:56:12;7.38;;;2.47;;
65759;SDS011;52496;51.082;5.066;2024-01-15T10:58:43;4.95;;;2.40;;
65759;SDS011;52496;51.082;5.066;2024-01-15T11:01:15;4.70;;;2.63;;
65759;SDS011;52496;51.082;5.066;2024-01-15T11:03:46;12.95;;;3.03;;
65759;SDS011;52496;51.082;5.066;2024-01-15T11:06:17;7.53;;;2.58;;
65759;SDS011;52496;51.082;5.066;2024-01-15T11:08:50;10.00;;;3.40;;
65759;SDS011;52496;51.082;5.066;2024-01-15T11:11:21;4.50;;;1.98;;
65759;SDS011;52496;51.082;5.066;2024-01-15T11:13:53;5.00;;;2.20;;
65759;SDS011;52496;51.082;5.066;2024-01-15T11:16:23;6.30;;;2.03;;
65759;SDS011;52496;51.082;5.066;2024-01-15T11:21:28;2.67;;;1.48;;
65759;SDS011;52496;51.082;5.066;2024-01-15T11:24:00;1.50;;;1.40;;
65759;SDS011;52496;51.082;5.066;2024-01-15T11:26:43;3.08;;;2.00;;
65759;SDS011;52496;51.082;5.066;2024-01-15T11:32:00;6.20;;;2.50;;
65759;SDS011;52496;51.082;5.066;2024-01-15T11:34:50;3.28;;;1.75;;
65759;SDS011;52496;51.082;5.066;2024-01-15T11:37:21;4.78;;;2.15;;
65759;SDS011;52496;51.082;5.066;2024-01-15T11:39:54;4.95;;;1.77;;
65759;SDS011;52496;51.082;5.066;2024-01-15T11:42:33;2.58;;;1.52;;
65759;SDS011;52496;51.082;5.066;2024-01-15T11:45:04;3.97;;;1.75;;
65759;SDS011;52496;51.082;5.066;2024-01-15T11:50:47;3.38;;;2.13;;
65759;SDS011;52496;51.082;5.066;2024-01-15T11:55:57;3.13;;;1.88;;
65759;SDS011;52496;51.082;5.066;2024-01-15T11:58:29;3.90;;;2.00;;
65759;SDS011;52496;51.082;5.066;2024-01-15T12:01:00;2.72;;;1.35;;
65759;SDS011;52496;51.082;5.066;2024-01-15T12:03:32;3.53;;;1.58;;
65759;SDS011;52496;51.082;5.066;2024-01-15T12:06:06;3.22;;;1.58;;
65759;SDS011;52496;51.082;5.066;2024-01-15T12:08:37;2.35;;;1.52;;
65759;SDS011;52496;51.082;5.066;2024-01-15T12:11:10;2.63;;;1.70;;
65759;SDS011;52496;51.082;5.066;2024-01-15T12:13:43;4.05;;;1.88;;
65759;SDS011;52496;51.082;5.066;2024-01-15T12:16:14;1.50;;;1.35;;
65759;SDS011;52496;51.082;5.066;2024-01-15T12:18:45;3.08;;;1.20;;
65759;SDS011;52496;51.082;5.066;2024-01-15T12:21:15;3.13;;;1.60;;
65759;SDS011;52496;51.082;5.066;2024-01-15T12:23:46;3.97;;;1.45;;
65759;SDS011;52496;51.082;5.066;2024-01-15T12:26:18;8.90;;;2.13;;
65759;SDS011;52496;51.082;5.066;2024-01-15T12:28:50;2.65;;;1.60;;
65759;SDS011;52496;51.082;5.066;2024-01-15T12:31:21;5.10;;;2.15;;
65759;SDS011;52496;51.082;5.066;2024-01-15T12:33:51;4.85;;;1.73;;
65759;SDS011;52496;51.082;5.066;2024-01-15T12:36:22;2.28;;;1.70;;
65759;SDS011;52496;51.082;5.066;2024-01-15T12:38:52;3.83;;;2.00;;
65759;SDS011;52496;51.082;5.066;2024-01-15T12:41:23;4.25;;;2.30;;
65759;SDS011;52496;51.082;5.066;2024-01-15T12:43:53;4.70;;;1.85;;
65759;SDS011;52496;51.082;5.066;2024-01-15T12:46:24;3.08;;;1.80;;
65759;SDS011;52496;51.082;5.066;2024-01-15T12:48:55;7.95;;;2.28;;
65759;SDS011;52496;51.082;5.066;2024-01-15T12:51:26;5.70;;;2.63;;
65759;SDS011;52496;51.082;5.066;2024-01-15T12:53:57;3.53;;;1.67;;
65759;SDS011;52496;51.082;5.066;2024-01-15T12:56:28;10.20;;;1.85;;
65759;SDS011;52496;51.082;5.066;2024-01-15T12:58:58;5.40;;;1.70;;
65759;SDS011;52496;51.082;5.066;2024-01-15T13:01:29;4.43;;;2.22;;
65759;SDS011;52496;51.082;5.066;2024-01-15T13:03:59;7.00;;;1.90;;
65759;SDS011;52496;51.082;5.066;2024-01-15T13:06:30;4.72;;;2.35;;
65759;SDS011;52496;51.082;5.066;2024-01-15T13:09:00;6.78;;;1.30;;
65759;SDS011;52496;51.082;5.066;2024-01-15T13:11:32;3.03;;;1.40;;
65759;SDS011;52496;51.082;5.066;2024-01-15T13:14:03;4.07;;;1.60;;
65759;SDS011;52496;51.082;5.066;2024-01-15T13:16:33;3.65;;;1.40;;
65759;SDS011;52496;51.082;5.066;2024-01-15T13:19:04;2.15;;;1.20;;
65759;SDS011;52496;51.082;5.066;2024-01-15T13:21:45;2.38;;;1.30;;
65759;SDS011;52496;51.082;5.066;2024-01-15T13:24:16;2.53;;;1.45;;
65759;SDS011;52496;51.082;5.066;2024-01-15T13:26:47;2.03;;;1.23;;
65759;SDS011;52496;51.082;5.066;2024-01-15T13:29:17;5.78;;;1.65;;
65759;SDS011;52496;51.082;5.066;2024-01-15T13:31:48;3.22;;;2.88;;
65759;SDS011;52496;51.082;5.066;2024-01-15T13:34:19;4.07;;;2.20;;
65759;SDS011;52496;51.082;5.066;2024-01-15T13:36:49;1.85;;;1.35;;
65759;SDS011;52496;51.082;5.066;2024-01-15T13:39:20;5.32;;;2.33;;
65759;SDS011;52496;51.082;5.066;2024-01-15T13:41:50;3.00;;;1.52;;
65759;SDS011;52496;51.082;5.066;2024-01-15T13:44:21;6.88;;;2.67;;
65759;SDS011;52496;51.082;5.066;2024-01-15T13:46:51;3.47;;;2.05;;
65759;SDS011;52496;51.082;5.066;2024-01-15T13:49:22;5.30;;;1.73;;
65759;SDS011;52496;51.082;5.066;2024-01-15T13:51:53;3.13;;;1.80;;
65759;SDS011;52496;51.082;5.066;2024-01-15T13:54:24;7.75;;;2.00;;
65759;SDS011;52496;51.082;5.066;2024-01-15T13:56:54;2.22;;;1.45;;
65759;SDS011;52496;51.082;5.066;2024-01-15T13:59:25;5.32;;;1.83;;
65759;SDS011;52496;51.082;5.066;2024-01-15T14:01:55;2.65;;;1.75;;
65759;SDS011;52496;51.082;5.066;2024-01-15T14:04:26;1.33;;;1.23;;
65759;SDS011;52496;51.082;5.066;2024-01-15T14:06:56;4.95;;;1.98;;
65759;SDS011;52496;51.082;5.066;2024-01-15T14:09:27;2.20;;;1.45;;
65759;SDS011;52496;51.082;5.066;2024-01-15T14:11:57;2.22;;;1.35;;
65759;SDS011;52496;51.082;5.066;2024-01-15T14:14:28;2.75;;;1.63;;
65759;SDS011;52496;51.082;5.066;2024-01-15T14:16:58;3.95;;;2.20;;
65759;SDS011;52496;51.082;5.066;2024-01-15T14:19:29;3.22;;;1.73;;
65759;SDS011;52496;51.082;5.066;2024-01-15T14:21:59;1.77;;;1.58;;
65759;SDS011;52496;51.082;5.066;2024-01-15T14:24:30;10.65;;;2.30;;
65759;SDS011;52496;51.082;5.066;2024-01-15T14:27:00;3.67;;;1.80;;
65759;SDS011;52496;51.082;5.066;2024-01-15T14:29:30;2.97;;;1.50;;
65759;SDS011;52496;51.082;5.066;2024-01-15T14:32:01;5.35;;;2.13;;
65759;SDS011;52496;51.082;5.066;2024-01-15T14:34:31;3.42;;;2.25;;
65759;SDS011;52496;51.082;5.066;2024-01-15T14:37:02;6.68;;;2.15;;
65759;SDS011;52496;51.082;5.066;2024-01-15T14:39:32;4.80;;;1.88;;
65759;SDS011;52496;51.082;5.066;2024-01-15T14:42:04;1.98;;;1.50;;
65759;SDS011;52496;51.082;5.066;2024-01-15T14:44:34;2.33;;;1.42;;
65759;SDS011;52496;51.082;5.066;2024-01-15T14:47:05;7.97;;;1.80;;
65759;SDS011;52496;51.082;5.066;2024-01-15T14:49:35;1.55;;;1.15;;
65759;SDS011;52496;51.082;5.066;2024-01-15T14:52:06;8.00;;;1.73;;
65759;SDS011;52496;51.082;5.066;2024-01-15T14:54:36;1.92;;;1.40;;
65759;SDS011;52496;51.082;5.066;2024-01-15T14:57:07;3.05;;;2.15;;
65759;SDS011;52496;51.082;5.066;2024-01-15T14:59:38;3.30;;;1.48;;
65759;SDS011;52496;51.082;5.066;2024-01-15T15:02:08;4.53;;;1.95;;
65759;SDS011;52496;51.082;5.066;2024-01-15T15:04:39;2.30;;;1.90;;
65759;SDS011;52496;51.082;5.066;2024-01-15T15:07:09;4.82;;;1.60;;
65759;SDS011;52496;51.082;5.066;2024-01-15T15:09:40;2.25;;;1.50;;
65759;SDS011;52496;51.082;5.066;2024-01-15T15:12:12;5.32;;;2.20;;
65759;SDS011;52496;51.082;5.066;2024-01-15T15:14:42;5.75;;;2.00;;